EW1090 Weather Reports


Display with metric or nautical units.
time (UTC)temp
F
wind
direction
speed
MPH
gust
MPH
rain 1hr
in
rain 24hr
in
rain mn
in
humidity
%
barometer
mb
20211017123822 62 53 2.0 7.0 0.00 0.00 0.00 63 1024.4
20211017123318 62 17 2.0 7.0 0.00 0.00 0.00 63 1024.5
20211017122815 62 13 3.0 7.0 0.00 0.00 0.00 63 1024.5
20211017122313 62 104 2.0 9.0 0.00 0.00 0.00 61 1024.4
20211017121812 62 28 3.0 9.0 0.00 0.00 0.00 62 1024.2
20211017121310 62 28 3.0 10.0 0.00 0.00 0.00 61 1024.2
20211017120809 62 26 3.0 12.0 0.00 0.00 0.00 62 1024.2
20211017120325 62 11 3.0 11.0 0.00 0.00 0.00 62 1024.2
20211017115312 62 97 4.0 13.0 0.00 0.00 0.00 61 1024.0
20211017114808 62 34 4.0 13.0 0.00 0.00 0.00 62 1024.0
20211017114323 62 39 3.0 10.0 0.00 0.00 0.00 62 1024.0
20211017113822 62 28 5.0 11.0 0.00 0.00 0.00 61 1024.0
20211017113319 62 57 4.0 11.0 0.00 0.00 0.00 63 1023.9
20211017112819 62 42 4.0 12.0 0.00 0.00 0.00 64 1023.9
20211017112320 62 19 4.0 11.0 0.00 0.00 0.00 65 1023.9
20211017111818 62 22 5.0 11.0 0.00 0.00 0.00 63 1023.8
20211017111315 62 345 4.0 10.0 0.00 0.00 0.00 64 1023.7
20211017110321 62 48 3.0 9.0 0.00 0.00 0.00 64 1023.8
20211017105819 62 13 4.0 11.0 0.00 0.00 0.00 64 1023.7
20211017105317 63 103 3.0 14.0 0.00 0.00 0.00 64 1023.6
20211017104815 63 38 4.0 14.0 0.00 0.00 0.00 64 1023.5
20211017104315 63 53 4.0 12.0 0.00 0.00 0.00 64 1023.5
20211017103817 63 17 5.0 14.0 0.00 0.00 0.00 64 1023.5
20211017103314 63 38 5.0 14.0 0.00 0.00 0.00 63 1023.5
20211017102810 63 55 3.0 15.0 0.00 0.00 0.00 65 1023.5
20211017102309 63 32 5.0 15.0 0.00 0.00 0.00 65 1023.4
20211017101827 63 13 6.0 14.0 0.00 0.00 0.00 64 1023.4
20211017101325 63 27 5.0 14.0 0.00 0.00 0.00 64 1023.3
20211017100825 63 50 4.0 14.0 0.00 0.00 0.00 64 1023.3
20211017100321 63 344 3.0 13.0 0.00 0.00 0.00 64 1023.2
20211017095821 63 11 4.0 13.0 0.00 0.00 0.00 63 1023.2
20211017095320 63 34 5.0 14.0 0.00 0.00 0.00 64 1023.1
20211017094818 63 14 4.0 15.0 0.00 0.00 0.00 63 1023.1
20211017094316 63 5 7.0 15.0 0.00 0.00 0.00 63 1023.1
20211017093816 63 43 3.0 11.0 0.00 0.00 0.00 64 1023.0
20211017093315 63 360 6.0 12.0 0.00 0.00 0.00 63 1023.0
20211017092815 64 65 4.0 13.0 0.00 0.00 0.00 62 1023.0
20211017092315 63 11 5.0 13.0 0.00 0.00 0.00 63 1023.0
20211017091816 64 12 6.0 13.0 0.00 0.00 0.00 62 1023.0
20211017091314 64 5 3.0 10.0 0.00 0.00 0.00 62 1022.9
20211017090812 64 360 4.0 12.0 0.00 0.00 0.00 62 1023.0
20211017090311 64 33 6.0 15.0 0.00 0.00 0.00 61 1023.0
20211017085810 64 40 5.0 15.0 0.00 0.00 0.00 61 1023.0
20211017085309 64 43 3.0 13.0 0.00 0.00 0.00 61 1023.1
20211017084820 64 360 5.0 13.0 0.00 0.00 0.00 60 1023.0
20211017084319 64 20 5.0 14.0 0.00 0.00 0.00 61 1023.0
20211017083816 64 22 4.0 14.0 0.00 0.00 0.00 62 1022.9
20211017083313 64 22 4.0 14.0 0.00 0.00 0.00 61 1022.8
20211017082811 64 5 7.0 14.0 0.00 0.00 0.00 59 1022.9
20211017082309 64 360 5.0 12.0 0.00 0.00 0.00 62 1023.0
20211017081809 64 38 5.0 12.0 0.00 0.00 0.00 61 1022.9
20211017081308 64 38 6.0 12.0 0.00 0.00 0.00 60 1022.9
20211017080807 64 20 5.0 14.0 0.00 0.00 0.00 60 1022.9
20211017080324 64 66 5.0 14.0 0.00 0.00 0.00 62 1022.9
20211017075821 64 22 4.0 16.0 0.00 0.00 0.00 61 1022.9
20211017075321 64 13 6.0 16.0 0.00 0.00 0.00 60 1022.9
20211017074818 64 46 6.0 13.0 0.00 0.00 0.00 58 1022.9
20211017074308 64 338 5.0 16.0 0.00 0.00 0.00 60 1022.9
20211017073808 64 22 4.0 13.0 0.00 0.00 0.00 60 1023.0
20211017073328 64 15 4.0 13.0 0.00 0.00 0.00 61 1022.9
20211017072826 64 35 3.0 13.0 0.00 0.00 0.00 61 1023.0
20211017072326 64 33 7.0 13.0 0.00 0.00 0.00 59 1023.0
20211017071826 65 79 5.0 13.0 0.00 0.00 0.00 61 1023.0
20211017071324 65 63 4.0 13.0 0.00 0.00 0.00 61 1023.2
20211017070822 65 44 4.0 12.0 0.00 0.00 0.00 61 1023.1
20211017070318 65 16 5.0 12.0 0.00 0.00 0.00 59 1023.1
20211017065816 65 24 6.0 12.0 0.00 0.00 0.00 59 1023.1
20211017065313 65 254 6.0 19.0 0.00 0.00 0.00 60 1023.0
20211017064812 65 47 3.0 14.0 0.00 0.00 0.00 60 1023.0
20211017064309 65 5 6.0 14.0 0.00 0.00 0.00 58 1023.0
20211017063808 65 42 5.0 12.0 0.00 0.00 0.00 59 1023.0
20211017063327 65 69 7.0 14.0 0.00 0.00 0.00 57 1023.1
20211017062822 65 5 6.0 14.0 0.00 0.00 0.00 59 1023.1
20211017062320 65 19 8.0 13.0 0.00 0.00 0.00 57 1023.1
20211017061818 65 13 5.0 12.0 0.00 0.00 0.00 58 1023.0
20211017061318 65 51 6.0 15.0 0.00 0.00 0.00 57 1023.1
20211017060816 65 355 6.0 15.0 0.00 0.00 0.00 58 1023.0
20211017060312 65 355 4.0 14.0 0.00 0.00 0.00 58 1023.1
20211017055813 65 70 5.0 14.0 0.00 0.00 0.00 57 1023.0
20211017055310 66 37 5.0 12.0 0.00 0.00 0.00 57 1023.1
20211017054823 66 9 5.0 12.0 0.00 0.00 0.00 57 1023.0
20211017054319 66 36 4.0 12.0 0.00 0.00 0.00 59 1023.1
20211017053818 66 40 2.0 12.0 0.00 0.00 0.00 60 1023.1
20211017053316 66 5 4.0 12.0 0.00 0.00 0.00 60 1023.1
20211017052813 66 105 3.0 13.0 0.00 0.00 0.00 59 1023.2
20211017052312 66 18 3.0 14.0 0.00 0.00 0.00 58 1023.2
20211017051811 66 30 7.0 14.0 0.00 0.00 0.00 57 1023.1
20211017051309 66 57 5.0 14.0 0.00 0.00 0.00 59 1023.2
20211017050808 66 14 5.0 12.0 0.00 0.00 0.00 57 1023.1
20211017050326 66 31 4.0 12.0 0.00 0.00 0.00 58 1023.2
20211017045817 66 32 5.0 12.0 0.00 0.00 0.00 57 1023.1
20211017045317 66 17 4.0 10.0 0.00 0.00 0.00 56 1023.1
20211017044814 66 19 5.0 17.0 0.00 0.00 0.00 57 1023.3
20211017044311 66 43 8.0 17.0 0.00 0.00 0.00 55 1023.2
20211017043829 67 350 5.0 12.0 0.00 0.00 0.00 57 1023.2
20211017043325 67 66 4.0 12.0 0.00 0.00 0.00 56 1023.1
20211017042825 67 19 6.0 14.0 0.00 0.00 0.00 55 1023.2
20211017042324 67 83 7.0 14.0 0.00 0.00 0.00 54 1023.1
20211017041823 67 26 4.0 14.0 0.00 0.00 0.00 57 1023.1
20211017041323 67 14 5.0 14.0 0.00 0.00 0.00 55 1023.1
20211017040823 67 44 5.0 14.0 0.00 0.00 0.00 55 1023.2
20211017040320 67 51 4.0 12.0 0.00 0.00 0.00 54 1023.1
20211017035820 67 360 4.0 12.0 0.00 0.00 0.00 56 1023.1
20211017035311 67 44 5.0 13.0 0.00 0.00 0.00 56 1023.1
20211017034811 67 15 5.0 13.0 0.00 0.00 0.00 55 1023.1
20211017034311 67 13 4.0 12.0 0.00 0.00 0.00 56 1023.1
20211017033808 67 22 5.0 12.0 0.00 0.00 0.00 57 1023.1
20211017033327 67 94 5.0 14.0 0.00 0.00 0.00 56 1023.1
20211017032825 67 5 5.0 14.0 0.00 0.00 0.00 55 1023.2
20211017032322 67 25 7.0 14.0 0.00 0.00 0.00 54 1023.0
20211017031820 68 42 3.0 15.0 0.00 0.00 0.00 52 1022.9
20211017031315 68 44 5.0 15.0 0.00 0.00 0.00 51 1023.1
20211017030814 68 227 5.0 12.0 0.00 0.00 0.00 52 1023.0
20211017030311 68 94 3.0 14.0 0.00 0.00 0.00 54 1023.0
20211017025809 68 69 6.0 14.0 0.00 0.00 0.00 52 1023.0
20211017025329 68 346 5.0 15.0 0.00 0.00 0.00 52 1022.9
20211017024825 68 36 6.0 15.0 0.00 0.00 0.00 52 1022.9
20211017024323 68 317 3.0 13.0 0.00 0.00 0.00 50 1022.8
20211017023823 68 56 5.0 11.0 0.00 0.00 0.00 50 1022.8
20211017023321 68 306 4.0 11.0 0.00 0.00 0.00 51 1022.8
20211017022819 68 360 4.0 11.0 0.00 0.00 0.00 52 1022.8
20211017022317 68 5 4.0 12.0 0.00 0.00 0.00 51 1022.7
20211017021813 68 360 5.0 14.0 0.00 0.00 0.00 49 1022.7
20211017021312 68 338 6.0 14.0 0.00 0.00 0.00 49 1022.6
20211017020811 68 360 4.0 16.0 0.00 0.00 0.00 51 1022.4
20211017015820 68 31 6.0 16.0 0.00 0.00 0.00 48 1022.4
20211017015319 69 23 2.0 11.0 0.00 0.00 0.00 51 1022.3
20211017014816 69 34 4.0 14.0 0.00 0.00 0.00 51 1022.2
20211017014316 68 360 4.0 10.0 0.00 0.00 0.00 50 1022.1
20211017013814 69 46 3.0 8.0 0.00 0.00 0.00 52 1022.1
20211017013310 69 96 2.0 8.0 0.00 0.00 0.00 52 1022.1
20211017012809 69 17 3.0 14.0 0.00 0.00 0.00 50 1021.9
20211017012308 69 76 3.0 14.0 0.00 0.00 0.00 49 1021.8
20211017011808 69 339 4.0 12.0 0.00 0.00 0.00 50 1021.8
20211017011327 69 324 3.0 13.0 0.00 0.00 0.00 50 1021.7
20211017010816 69 17 2.0 10.0 0.00 0.00 0.00 50 1021.6
20211017010312 69 9 2.0 11.0 0.00 0.00 0.00 48 1021.5
20211017005811 69 42 1.0 11.0 0.00 0.00 0.00 49 1021.6
20211017005309 69 57 5.0 11.0 0.00 0.00 0.00 49 1021.5
20211017004809 69 111 2.0 10.0 0.00 0.00 0.00 50 1021.3
20211017004308 69 51 3.0 9.0 0.00 0.00 0.00 52 1021.2
20211017003817 69 9 1.0 8.0 0.00 0.00 0.00 49 1021.2
20211017003315 69 13 2.0 9.0 0.00 0.00 0.00 49 1021.1
20211017002815 70 32 1.0 9.0 0.00 0.00 0.00 49 1021.0
20211017002313 70 355 2.0 17.0 0.00 0.00 0.00 51 1021.0
20211017001812 70 59 4.0 17.0 0.00 0.00 0.00 49 1020.9
20211017001312 70 28 2.0 8.0 0.00 0.00 0.00 50 1020.9
20211017000808 70 340 1.0 10.0 0.00 0.00 0.00 49 1020.8
20211017000326 70 311 1.0 10.0 0.00 0.00 0.00 50 1020.8
20211016235825 70 319 1.0 11.0 0.00 0.00 0.00 48 1020.7
20211016235322 70 10 2.0 11.0 0.00 0.00 0.00 48 1020.5
20211016234822 70 48 3.0 10.0 0.00 0.00 0.00 49 1020.4
20211016234321 70 90 1.0 10.0 0.00 0.00 0.00 49 1020.3
20211016233820 70 60 2.0 8.0 0.00 0.00 0.00 49 1020.3
20211016233318 70 355 3.0 8.0 0.00 0.00 0.00 49 1020.3
20211016232818 71 215 1.0 9.0 0.00 0.00 0.00 50 1020.2
20211016232319 71 35 3.0 9.0 0.00 0.00 0.00 49 1020.2
20211016231817 71 92 2.0 9.0 0.00 0.00 0.00 49 1020.1
20211016231317 71 205 1.0 8.0 0.00 0.00 0.00 48 1020.0
20211016230814 71 312 2.0 8.0 0.00 0.00 0.00 48 1019.9
20211016230312 72 9 1.0 10.0 0.00 0.00 0.00 48 1019.9
20211016225810 72 18 4.0 13.0 0.00 0.00 0.00 48 1019.9
20211016225309 72 13 4.0 13.0 0.00 0.00 0.00 48 1019.8
20211016224829 72 326 2.0 7.0 0.00 0.00 0.00 46 1019.7
20211016224328 73 68 0.0 11.0 0.00 0.00 0.00 47 1019.7
20211016223825 73 34 2.0 11.0 0.00 0.00 0.00 47 1019.7
20211016223322 74 299 1.0 5.0 0.00 0.00 0.00 47 1019.6
20211016222821 74 17 1.0 7.0 0.00 0.00 0.00 46 1019.5
20211016222320 75 340 2.0 7.0 0.00 0.00 0.00 46 1019.5
20211016221819 75 308 1.0 8.0 0.00 0.00 0.00 46 1019.5
20211016221319 75 355 1.0 12.0 0.00 0.00 0.00 45 1019.5
20211016220818 75 297 3.0 12.0 0.00 0.00 0.00 42 1019.5
20211016220313 76 333 2.0 7.0 0.00 0.00 0.00 43 1019.5
20211016215811 76 340 1.0 7.0 0.00 0.00 0.00 43 1019.4
20211016215308 76 226 1.0 10.0 0.00 0.00 0.00 43 1019.4
20211016214827 76 272 1.0 8.0 0.00 0.00 0.00 43 1019.5
20211016214308 77 299 3.0 10.0 0.00 0.00 0.00 42 1019.5
20211016213828 77 24 1.0 10.0 0.00 0.00 0.00 42 1019.4
20211016213327 77 30 1.0 9.0 0.00 0.00 0.00 42 1019.4
20211016212827 77 355 2.0 6.0 0.00 0.00 0.00 42 1019.4
20211016212325 77 12 1.0 8.0 0.00 0.00 0.00 41 1019.4
20211016211825 77 10 2.0 8.0 0.00 0.00 0.00 41 1019.3
20211016211325 77 329 2.0 7.0 0.00 0.00 0.00 44 1019.3
20211016210824 77 334 2.0 6.0 0.00 0.00 0.00 42 1019.4
20211016210322 78 285 2.0 8.0 0.00 0.00 0.00 43 1019.4
20211016205311 78 355 2.0 7.0 0.00 0.00 0.00 42 1019.4
20211016204810 78 278 2.0 7.0 0.00 0.00 0.00 41 1019.4
20211016204328 78 326 2.0 6.0 0.00 0.00 0.00 42 1019.4
20211016203827 78 29 2.0 6.0 0.00 0.00 0.00 41 1019.4
20211016203325 78 30 1.0 6.0 0.00 0.00 0.00 42 1019.3
20211016202825 78 292 2.0 6.0 0.00 0.00 0.00 42 1019.4
20211016202325 78 270 2.0 9.0 0.00 0.00 0.00 43 1019.3
20211016201824 78 355 1.0 9.0 0.00 0.00 0.00 43 1019.2
20211016201323 78 319 1.0 11.0 0.00 0.00 0.00 43 1019.2
20211016200824 77 347 3.0 11.0 0.00 0.00 0.00 44 1019.3
20211016200322 77 9 4.0 11.0 0.00 0.00 0.00 43 1019.4
20211016195820 78 15 5.0 11.0 0.00 0.00 0.00 42 1019.3
20211016195319 78 355 3.0 11.0 0.00 0.00 0.00 43 1019.4
20211016194818 78 18 2.0 10.0 0.00 0.00 0.00 44 1019.4
20211016194316 78 17 1.0 8.0 0.00 0.00 0.00 45 1019.4
20211016193816 78 304 1.0 5.0 0.00 0.00 0.00 46 1019.3
20211016193311 78 336 1.0 9.0 0.00 0.00 0.00 47 1019.3
20211016192811 78 360 1.0 9.0 0.00 0.00 0.00 47 1019.4
20211016192309 78 12 2.0 7.0 0.00 0.00 0.00 47 1019.3
20211016191828 77 76 1.0 9.0 0.00 0.00 0.00 48 1019.3
20211016191327 77 46 3.0 9.0 0.00 0.00 0.00 48 1019.5
20211016190823 77 62 3.0 7.0 0.00 0.00 0.00 48 1019.5
20211016190320 77 332 2.0 8.0 0.00 0.00 0.00 50 1019.5
20211016185817 77 297 3.0 8.0 0.00 0.00 0.00 50 1019.6
20211016185316 76 336 2.0 12.0 0.00 0.00 0.00 50 1019.7
20211016184815 76 42 2.0 9.0 0.00 0.00 0.00 53 1019.7
20211016184314 76 355 4.0 9.0 0.00 0.00 0.00 50 1019.7
20211016183814 76 350 4.0 8.0 0.00 0.00 0.00 51 1019.8
20211016183311 75 355 1.0 8.0 0.00 0.00 0.00 53 1019.8
20211016182809 75 46 2.0 7.0 0.00 0.00 0.00 53 1019.9
20211016182311 75 265 2.0 9.0 0.00 0.00 0.00 54 1019.9
20211016181828 75 202 2.0 7.0 0.00 0.00 0.00 54 1020.1
20211016181326 75 324 2.0 14.0 0.00 0.00 0.00 54 1020.2
20211016180825 76 51 1.0 6.0 0.00 0.00 0.00 55 1020.2
20211016180323 75 355 1.0 7.0 0.00 0.00 0.00 56 1020.3
20211016175820 75 360 2.0 8.0 0.00 0.00 0.00 56 1020.3
20211016175319 75 66 2.0 8.0 0.00 0.00 0.00 56 1020.4
20211016174819 75 336 2.0 9.0 0.00 0.00 0.00 56 1020.4
20211016174317 74 13 2.0 9.0 0.00 0.00 0.00 56 1020.4
20211016173819 74 355 2.0 11.0 0.00 0.00 0.00 55 1020.5
20211016173318 74 5 1.0 11.0 0.00 0.00 0.00 57 1020.6
20211016172816 74 53 2.0 8.0 0.00 0.00 0.00 56 1020.5
20211016172314 74 282 2.0 8.0 0.00 0.00 0.00 56 1020.5
20211016171811 74 294 2.0 8.0 0.00 0.00 0.00 57 1020.5
20211016171311 74 29 1.0 8.0 0.00 0.00 0.00 58 1020.6
20211016170809 75 17 3.0 7.0 0.00 0.00 0.00 57 1020.6
20211016170326 75 51 2.0 8.0 0.00 0.00 0.00 58 1020.6
20211016165824 74 225 2.0 8.0 0.00 0.00 0.00 57 1020.6
20211016165323 74 32 1.0 8.0 0.00 0.00 0.00 59 1020.6
20211016164821 74 281 2.0 11.0 0.00 0.00 0.00 59 1020.6
20211016164320 73 215 3.0 11.0 0.00 0.00 0.00 61 1020.8
20211016163819 73 5 2.0 9.0 0.00 0.00 0.00 62 1020.8
20211016163318 73 360 3.0 9.0 0.00 0.00 0.00 63 1020.8
20211016162817 72 30 2.0 12.0 0.00 0.00 0.00 64 1020.8
20211016162317 72 11 5.0 12.0 0.00 0.00 0.00 62 1020.8
20211016161817 72 71 2.0 9.0 0.00 0.00 0.00 64 1020.8
20211016161318 72 65 2.0 10.0 0.00 0.00 0.00 65 1020.9
20211016160817 72 355 2.0 10.0 0.00 0.00 0.00 66 1020.9
20211016160313 72 36 3.0 9.0 0.00 0.00 0.00 67 1021.0
20211016155811 71 29 1.0 11.0 0.00 0.00 0.00 68 1021.1
20211016155309 71 32 1.0 11.0 0.00 0.00 0.00 68 1021.0
20211016154809 71 36 2.0 12.0 0.00 0.00 0.00 67 1021.0
20211016154326 71 34 2.0 12.0 0.00 0.00 0.00 68 1021.0
20211016153825 70 162 1.0 8.0 0.00 0.00 0.00 69 1021.0
20211016153323 70 292 4.0 8.0 0.00 0.00 0.00 70 1020.9
20211016152821 70 275 2.0 7.0 0.00 0.00 0.00 70 1020.9
20211016152320 70 323 1.0 11.0 0.00 0.00 0.00 69 1020.8
20211016151818 70 55 4.0 11.0 0.00 0.00 0.00 69 1020.9
20211016151313 70 341 3.0 10.0 0.00 0.00 0.00 69 1020.9
20211016150812 70 17 3.0 11.0 0.00 0.00 0.00 69 1020.7
20211016150310 70 46 1.0 10.0 0.00 0.00 0.00 71 1020.8
20211016145810 70 60 1.0 12.0 0.00 0.00 0.00 69 1020.8
20211016145326 70 49 5.0 12.0 0.00 0.00 0.00 69 1020.7
20211016144824 70 75 2.0 7.0 0.00 0.00 0.00 70 1020.7
20211016144322 69 309 2.0 7.0 0.00 0.00 0.00 71 1020.6
20211016143820 69 13 1.0 7.0 0.00 0.00 0.00 70 1020.5
20211016143318 69 328 2.0 9.0 0.00 0.00 0.00 71 1020.6
20211016142816 70 306 2.0 9.0 0.00 0.00 0.00 71 1020.7
20211016142314 70 313 2.0 12.0 0.00 0.00 0.00 74 1020.5
20211016141810 69 52 5.0 12.0 0.00 0.00 0.00 71 1020.5
20211016141329 69 111 2.0 8.0 0.00 0.00 0.00 71 1020.5
20211016140823 69 273 2.0 18.0 0.00 0.00 0.00 72 1020.4
20211016140321 70 342 5.0 12.0 0.00 0.00 0.00 70 1020.3
20211016135817 70 355 3.0 11.0 0.00 0.00 0.00 73 1020.2
20211016135314 69 300 1.0 13.0 0.00 0.00 0.00 74 1020.2
20211016134812 69 273 4.0 12.0 0.00 0.00 0.00 72 1020.0
20211016134311 69 344 3.0 12.0 0.00 0.00 0.00 72 1019.9
20211016133827 69 355 3.0 10.0 0.00 0.00 0.00 74 1019.9
20211016133327 69 334 2.0 11.0 0.00 0.00 0.00 75 1019.8
20211016132820 69 257 3.0 11.0 0.00 0.00 0.00 75 1019.8
20211016132320 69 257 4.0 8.0 0.00 0.00 0.00 76 1019.6
20211016131816 69 34 2.0 7.0 0.00 0.00 0.00 77 1019.6
20211016131312 69 5 1.0 9.0 0.00 0.00 0.00 76 1019.5
20211016130810 69 231 2.0 9.0 0.00 0.00 0.00 76 1019.5
20211016130328 69 360 1.0 8.0 0.00 0.00 0.00 76 1019.4
20211016125828 69 348 2.0 8.0 0.00 0.00 0.00 78 1019.3
20211016125327 69 16 2.0 7.0 0.00 0.00 0.00 78 1019.3
20211016124823 69 305 2.0 10.0 0.00 0.00 0.00 78 1019.1
20211016124323 69 341 2.0 9.0 0.00 0.00 0.00 78 1019.0